Newport News Williamsburg International Airport
KPHF : rendu visible

Aérodrome :











RETROUVEZ-NOUS SUR...

 
LOGIN :

S'inscrire | Disclaimer

   EN    FR    IT 

 









Légende :    VFR   VFR Marginal   IFR   IFR Intensif   IFR Très Intensif
Visi : 
Plafond : 
>= 8 km
>= 3000ft
5 à 8 km
1000 à 3000 ft
1500m à 5 km
500 à 1000 ft
800 à 1500m
200 à 500 ft
< 800m
< 200 ft
Symboles :   Orages  Brouillard  Fortes neiges  Fortes précipitations  Vent > 20 kt






- Altitude de l'aérodrome : 42 ft
- Code IATA : PHF


KPHF - Newport News Williamsburg International

DERNIER METAR :
  • 040254Z 02005KT 10SM OVC095 13/04 A2988 RMK AO2 SLP117 T01280044 51023

METARs EXPIRÉS :
  • 040154Z 04009KT 10SM SCT090 13/04 A2986 RMK AO2 SLP112 T01330039
  • 040054Z 04007KT 10SM CLR 13/03 A2984 RMK AO2 SLP103 T01330033

TAF KPHF
Valide du 04 à 00h jusqu'au 05 à 00h UTC


032320Z 0400/0424 01010KT P6SM FEW150
FM041300 36008KT P6SM BKN060
FM041500 01009KT P6SM BKN030
FM041900 02008KT P6SM BKN035
FM042100 05008KT P6SM SCT045



MET'MAP, la Météo Aéronautique d'un coup d'oeil ! - Copyright ORBIFLY Décembre 2007 - Disclaimer

ORBIFLY MET'MAP TEAM :

Programmation & Développement : Alexandra Zaïnal
Sur une idée originale de : Baudouin d'Aumeries
Assistance à la programmation : Marc-Olivier Méhu
Soutien technique & logistique : Manuel Goepfert

Contact : metmap@orbifly.com




SOURCES & CREDITS :

   NOAA       Earth
Advisory